joomla templates top joomla templates template joomla

King Air Abend

Notam

C3641/14 - CUSTOMS AVBL PPR, TEL 0049 9561 92098. 13 NOV 14:46 2014 UNTIL PERM. CREATED: 13 NOV 14:47 2014

Neue Wetteranzeige

Aktuelles Platzwetter Stand 1.03.2017 20:00Z

AvgMinMax
Windrichtung210190240Deg
Windgeschwindigkeit11716kt
Sichtweite>10000m
Temperatur4°C
Taupunkt4°C
Feuchte100%
QNH1004.9hPa
QFE951.9hPa
WolkenBKN011 BKN020 OVC050

Aerodrome Terminal Information Service (ATIS) Coburg

METAR
EDQC 011950Z AUTO 22013KT 9999 BKN012 BKN055 04/04 Q1005=

METAR und TAF der Umgebung

[Quelle: ADDS]
METAR
EDDF 011950Z 19008KT 9999 FEW008 SCT016 BKN025 06/05 Q1003 NOSIG =
EDDN 011950Z 17005KT 110V220 9999 FEW015 SCT045 BKN070 05/03 Q1006 NOSIG =
EDDE 011950Z 20009KT 9999 -RA FEW030 OVC100 05/03 Q1003 NOSIG =
TAF
EDDF 011700Z 0118/0224 20012KT 9999 SCT025 BKN045 TEMPO 0118/0202 RA PROB40 TEMPO 0122/0202 4000 -RA BKN012 BECMG 0200/0203 21015G25KT BECMG 0207/0209 24020G35KT BECMG 0215/0217 23012G25KT =
EDDN 011700Z 0118/0218 20010KT 9999 BKN030 TEMPO 0120/0204 RA BECMG 0200/0202 24015G30KT BECMG 0204/0206 26020G35KT PROB40 TEMPO 0210/0216 27025G45KT 4500 -SHRAGS BKN030TCU BECMG 0216/0218 25012KT =
EDDE 011700Z 0118/0218 19011KT 9999 BKN030 BECMG 0201/0204 23015G25KT BECMG 0204/0207 25025G35KT TEMPO 0206/0216 25030G45KT =
SR / SS: 05:59 / 17:00 UTC (EDQC 2017-03-01)

Wetterverlauf

Windvorhersage

Verkehrslandeplatz Coburg Brandensteinsebene
Tower
Zur Brandensteinsebene
96450 Coburg

AeroClub Logo 200px

Aero Club Coburg e. V.
Postfach 11 09
96401 Coburg